Time;durP1;ratioP1;P1;durP2;ratioP2;P2;SDS_P1;SDS_P2;PMS_P1;PMS_P2;Temp;Humidity;BMP_temperature;BMP_pressure;BME280_temperature;BME280_humidity;BME280_pressure;Samples;Min_cycle;Max_cycle;Signal;HPM_P1;HPM_P2
2023/08/07 00:00:35;;;;;;;;;1.00;1.00;;;;;-145.10;100.00;63789.38;5018354;28;45461;-83
2023/08/07 00:03:00;;;;;;;;;5.00;1.50;;;;;-145.10;100.00;63789.38;5025172;28;55511;-84
2023/08/07 00:05:25;;;;;;;;;3.00;0.75;;;;;-145.10;100.00;63789.38;5036798;28;45337;-83
2023/08/07 00:07:51;;;;;;;;;2.50;1.00;;;;;-145.10;100.00;63789.38;5038648;28;45241;-84
2023/08/07 00:10:16;;;;;;;;;1.75;1.75;;;;;-145.10;100.00;63789.38;5042062;28;45457;-85
2023/08/07 00:12:42;;;;;;;;;2.00;0.75;;;;;-145.10;100.00;63789.38;5038620;28;46085;-84
2023/08/07 00:15:09;;;;;;;;;2.50;1.50;;;;;-145.10;100.00;63789.38;5047278;28;45425;-84
2023/08/07 00:17:34;;;;;;;;;1.50;1.00;;;;;-145.10;100.00;63789.38;5053586;28;44757;-85
2023/08/07 00:20:00;;;;;;;;;2.00;0.75;;;;;-145.10;100.00;63789.38;5048108;28;44790;-84
2023/08/07 00:22:25;;;;;;;;;0.75;0.75;;;;;-145.10;100.00;63789.38;5034463;28;47499;-85
2023/08/07 00:24:51;;;;;;;;;1.00;0.75;;;;;-145.10;100.00;63789.38;5026011;28;45419;-85
2023/08/07 00:27:16;;;;;;;;;2.75;0.75;;;;;-145.10;100.00;63789.38;5035820;28;54370;-84
2023/08/07 00:29:42;;;;;;;;;2.50;0.75;;;;;-145.10;100.00;63789.38;5040895;28;45472;-84
2023/08/07 00:32:07;;;;;;;;;1.00;0.75;;;;;-145.10;100.00;63789.38;5041321;28;48061;-83
2023/08/07 00:34:32;;;;;;;;;1.75;0.75;;;;;-145.10;100.00;63789.38;5035437;28;45404;-85
2023/08/07 00:36:58;;;;;;;;;1.75;0.50;;;;;-145.10;100.00;63789.38;5037944;28;45426;-85
2023/08/07 00:39:24;;;;;;;;;0.75;0.75;;;;;-145.10;100.00;63789.38;5036227;28;45434;-86
2023/08/07 00:41:49;;;;;;;;;1.75;1.75;;;;;-145.10;100.00;63789.38;5024218;28;50686;-84
2023/08/07 00:44:15;;;;;;;;;2.75;0.75;;;;;-145.10;100.00;63789.38;5017058;28;66337;-84
2023/08/07 00:46:40;;;;;;;;;2.75;1.00;;;;;-145.10;100.00;63789.38;5023379;28;45625;-84
2023/08/07 00:49:07;;;;;;;;;1.25;0.75;;;;;-145.10;100.00;63789.38;5037636;28;45499;-83
2023/08/07 00:51:33;;;;;;;;;0.50;0.50;;;;;-145.10;100.00;63789.38;5023432;28;47517;-85
2023/08/07 00:53:59;;;;;;;;;0.75;0.75;;;;;-145.10;100.00;63789.38;5033633;28;45504;-84
2023/08/07 00:56:25;;;;;;;;;1.50;0.75;;;;;-145.10;100.00;63789.38;5023235;28;45263;-84
2023/08/07 00:58:51;;;;;;;;;2.00;0.75;;;;;-145.10;100.00;63789.38;5042878;28;45595;-86
2023/08/07 01:01:16;;;;;;;;;2.25;1.00;;;;;-145.10;100.00;63789.38;5024198;28;46998;-85
2023/08/07 01:03:42;;;;;;;;;1.75;1.00;;;;;-145.10;100.00;63789.38;5019690;28;45521;-85
2023/08/07 01:06:08;;;;;;;;;3.00;0.75;;;;;-145.10;100.00;63789.38;5037291;28;45337;-85
2023/08/07 01:08:33;;;;;;;;;1.75;1.00;;;;;-145.10;100.00;63789.38;5033188;28;45482;-85
2023/08/07 01:11:18;;;;;;;;;1.00;0.75;;;;;-145.10;100.00;63789.38;5024039;28;47848;-86
2023/08/07 01:14:01;;;;;;;;;1.50;0.75;;;;;-145.10;100.00;63789.38;5032371;28;45674;-86
2023/08/07 01:16:35;;;;;;;;;1.50;1.50;;;;;-145.10;100.00;63789.38;5031585;28;45458;-85
2023/08/07 01:19:02;;;;;;;;;3.75;0.75;;;;;-145.10;100.00;63789.38;5037674;28;45445;-85
2023/08/07 01:21:28;;;;;;;;;0.50;0.50;;;;;-145.10;100.00;63789.38;5042303;28;45371;-85
2023/08/07 01:23:53;;;;;;;;;2.25;1.00;;;;;-145.10;100.00;63789.38;5041242;28;45313;-86
2023/08/07 01:26:19;;;;;;;;;4.00;1.50;;;;;-145.10;100.00;63789.38;5035186;28;63615;-86
2023/08/07 01:29:06;;;;;;;;;1.50;0.75;;;;;-145.10;100.00;63789.38;5029352;28;45553;-85
2023/08/07 01:31:33;;;;;;;;;1.25;0.75;;;;;-145.10;100.00;63789.38;5035201;28;46303;-86
2023/08/07 01:34:03;;;;;;;;;1.25;0.50;;;;;-145.10;100.00;63789.38;5021994;28;45848;-87
2023/08/07 01:36:29;;;;;;;;;0.75;0.75;;;;;-145.10;100.00;63789.38;5040824;28;45450;-85
2023/08/07 01:38:57;;;;;;;;;1.25;1.25;;;;;-145.10;100.00;63789.38;5023959;28;45241;-86
2023/08/07 01:41:24;;;;;;;;;1.50;1.25;;;;;-145.10;100.00;63789.38;5029722;28;45710;-86
2023/08/07 01:43:49;;;;;;;;;1.00;1.00;;;;;-145.10;100.00;63789.38;5039485;28;45797;-85
2023/08/07 01:46:14;;;;;;;;;4.50;1.75;;;;;-145.10;100.00;63789.38;5031639;28;45778;-85
2023/08/07 01:48:40;;;;;;;;;4.50;1.50;;;;;-145.10;100.00;63789.38;5053482;28;46598;-85
2023/08/07 01:51:05;;;;;;;;;3.50;1.75;;;;;-145.10;100.00;63789.38;5047604;28;45554;-85
2023/08/07 01:53:31;;;;;;;;;1.25;1.25;;;;;-145.10;100.00;63789.38;5048930;28;45338;-85
2023/08/07 01:55:56;;;;;;;;;4.00;2.25;;;;;-145.10;100.00;63789.38;5041746;28;45202;-85
2023/08/07 01:58:22;;;;;;;;;4.00;2.00;;;;;-145.10;100.00;63789.38;5048478;28;45293;-86
2023/08/07 02:00:47;;;;;;;;;3.00;2.50;;;;;-145.10;100.00;63789.38;5042258;28;47313;-86
2023/08/07 02:03:12;;;;;;;;;4.75;1.50;;;;;-145.10;100.00;63789.38;5036834;28;44773;-87
2023/08/07 02:05:38;;;;;;;;;2.50;0.50;;;;;-145.10;100.00;63789.38;5038013;28;55791;-86
2023/08/07 02:08:03;;;;;;;;;0.75;0.75;;;;;-145.10;100.00;63789.38;5042188;28;45434;-86
2023/08/07 02:10:29;;;;;;;;;3.00;1.00;;;;;-145.10;100.00;63789.38;5046256;28;47636;-85
2023/08/07 02:12:54;;;;;;;;;1.50;0.50;;;;;-145.10;100.00;63789.38;5022164;28;45309;-84
2023/08/07 02:15:19;;;;;;;;;4.50;0.50;;;;;-145.10;100.00;63789.38;5038805;28;71121;-87
2023/08/07 02:17:44;;;;;;;;;3.00;2.00;;;;;-145.10;100.00;63789.38;5037978;28;46376;-85
2023/08/07 02:20:11;;;;;;;;;5.25;2.00;;;;;-145.10;100.00;63789.38;5049095;28;69228;-84
2023/08/07 02:22:36;;;;;;;;;5.00;3.75;;;;;-145.10;100.00;63789.38;5019591;28;45944;-84
2023/08/07 02:25:01;;;;;;;;;4.75;2.50;;;;;-145.10;100.00;63789.38;5032790;28;48846;-86
2023/08/07 02:27:27;;;;;;;;;3.25;1.50;;;;;-145.10;100.00;63789.38;5035204;28;45597;-84
2023/08/07 02:29:52;;;;;;;;;2.00;1.25;;;;;-145.10;100.00;63789.38;5044141;28;47805;-85
2023/08/07 02:32:18;;;;;;;;;1.50;0.50;;;;;-145.10;100.00;63789.38;5022183;28;46229;-84
2023/08/07 02:34:44;;;;;;;;;1.75;1.50;;;;;-145.10;100.00;63789.38;5032132;28;56856;-86
2023/08/07 02:37:09;;;;;;;;;2.25;1.25;;;;;-145.10;100.00;63789.38;5035822;28;45478;-84
2023/08/07 02:39:35;;;;;;;;;3.25;2.50;;;;;-145.10;100.00;63789.38;5036041;28;61888;-85
2023/08/07 02:42:00;;;;;;;;;2.75;1.25;;;;;-145.10;100.00;63789.38;5020611;28;62132;-86
2023/08/07 02:44:25;;;;;;;;;3.25;2.25;;;;;-145.10;100.00;63789.38;5033829;28;45299;-85
2023/08/07 02:46:51;;;;;;;;;3.00;1.50;;;;;-145.10;100.00;63789.38;5039996;28;63913;-85
2023/08/07 02:49:16;;;;;;;;;3.00;1.50;;;;;-145.10;100.00;63789.38;5038222;28;67319;-86
2023/08/07 02:51:42;;;;;;;;;1.25;1.00;;;;;-145.10;100.00;63789.38;5057631;28;58305;-86
2023/08/07 02:54:07;;;;;;;;;1.00;0.75;;;;;-145.10;100.00;63789.38;5040742;28;45352;-85
2023/08/07 02:56:32;;;;;;;;;6.25;2.25;;;;;-145.10;100.00;63789.38;5016880;28;45527;-85
2023/08/07 02:58:59;;;;;;;;;5.50;2.00;;;;;-145.10;100.00;63789.38;5036057;28;45440;-85
2023/08/07 03:01:24;;;;;;;;;5.00;2.25;;;;;-145.10;100.00;63789.38;5030792;28;45766;-84
2023/08/07 03:03:49;;;;;;;;;1.75;1.00;;;;;-145.10;100.00;63789.38;5022359;28;45281;-84
2023/08/07 03:06:15;;;;;;;;;4.00;2.50;;;;;-145.10;100.00;63789.38;5033046;28;45238;-84
2023/08/07 03:08:40;;;;;;;;;1.50;1.50;;;;;-145.10;100.00;63789.38;5016617;28;47879;-85
2023/08/07 03:11:05;;;;;;;;;1.25;1.25;;;;;-145.10;100.00;63789.38;5031201;28;72105;-88
2023/08/07 03:13:31;;;;;;;;;4.75;1.50;;;;;-145.10;100.00;63789.38;5028773;28;67568;-87
2023/08/07 03:16:03;;;;;;;;;3.50;2.25;;;;;-145.10;100.00;63789.38;5032998;28;57418;-85
2023/08/07 03:18:29;;;;;;;;;1.75;1.50;;;;;-145.10;100.00;63789.38;5032089;28;45912;-86
2023/08/07 03:20:55;;;;;;;;;1.50;1.50;;;;;-145.10;100.00;63789.38;5021301;28;45451;-86
2023/08/07 03:23:22;;;;;;;;;2.00;1.00;;;;;-145.10;100.00;63789.38;5014921;28;45288;-87
2023/08/07 03:25:47;;;;;;;;;3.00;1.25;;;;;-145.10;100.00;63789.38;5032417;28;45300;-86
2023/08/07 03:28:12;;;;;;;;;5.00;2.00;;;;;-145.10;100.00;63789.38;5037955;28;61111;-86
2023/08/07 03:30:38;;;;;;;;;2.25;1.00;;;;;-145.10;100.00;63789.38;5036217;28;45222;-86
2023/08/07 03:33:04;;;;;;;;;1.25;1.25;;;;;-145.10;100.00;63789.38;5011466;28;45322;-83
2023/08/07 03:35:29;;;;;;;;;2.00;2.00;;;;;-145.10;100.00;63789.38;5039614;28;45558;-84
2023/08/07 03:37:55;;;;;;;;;2.00;1.50;;;;;-145.10;100.00;63789.38;5038304;28;46838;-85
2023/08/07 03:40:20;;;;;;;;;2.50;2.50;;;;;-145.10;100.00;63789.38;5032089;28;45444;-84
2023/08/07 03:42:45;;;;;;;;;3.50;1.75;;;;;-145.10;100.00;63789.38;5036900;28;62455;-83
2023/08/07 03:45:11;;;;;;;;;5.50;2.75;;;;;-145.10;100.00;63789.38;5039477;28;45256;-84
2023/08/07 03:47:36;;;;;;;;;3.50;3.00;;;;;-145.10;100.00;63789.38;5032259;28;74377;-83
2023/08/07 03:50:01;;;;;;;;;4.25;2.25;;;;;-145.10;100.00;63789.38;5021048;28;62785;-84
2023/08/07 03:52:27;;;;;;;;;3.50;1.50;;;;;-145.10;100.00;63789.38;5030093;28;45335;-84
2023/08/07 03:54:52;;;;;;;;;7.25;3.50;;;;;-145.10;100.00;63789.38;5027816;28;59123;-85
2023/08/07 03:57:18;;;;;;;;;3.25;1.75;;;;;-145.10;100.00;63789.38;5033318;28;46382;-84
2023/08/07 03:59:43;;;;;;;;;2.75;2.75;;;;;-145.10;100.00;63789.38;5021258;28;45430;-84
2023/08/07 04:02:08;;;;;;;;;5.25;2.50;;;;;-145.10;100.00;63789.38;5031048;28;63957;-85
2023/08/07 04:04:34;;;;;;;;;2.75;2.75;;;;;-145.10;100.00;63789.38;5014193;28;45325;-84
2023/08/07 04:06:59;;;;;;;;;3.25;3.00;;;;;-145.10;100.00;63789.38;5034622;28;65557;-84
2023/08/07 04:09:24;;;;;;;;;4.25;2.50;;;;;-145.10;100.00;63789.38;5021955;28;61012;-85
2023/08/07 04:11:50;;;;;;;;;2.00;2.00;;;;;-145.10;100.00;63789.38;5037128;28;45411;-85
2023/08/07 04:14:15;;;;;;;;;2.50;2.25;;;;;-145.10;100.00;63789.38;5032587;28;45364;-84
2023/08/07 04:16:40;;;;;;;;;1.75;1.50;;;;;-145.10;100.00;63789.38;5033106;28;46153;-84
2023/08/07 04:19:07;;;;;;;;;2.50;1.50;;;;;-145.10;100.00;63789.38;5040397;28;45260;-85
2023/08/07 04:21:32;;;;;;;;;2.00;2.00;;;;;-145.10;100.00;63789.38;5034797;28;45387;-85
2023/08/07 04:23:59;;;;;;;;;3.25;3.00;;;;;-145.10;100.00;63789.38;5021400;28;59876;-85
2023/08/07 04:26:25;;;;;;;;;4.00;2.25;;;;;-145.10;100.00;63789.38;5049226;28;45319;-85
2023/08/07 04:28:51;;;;;;;;;2.50;2.50;;;;;-145.10;100.00;63789.38;5051067;28;45451;-85
2023/08/07 04:31:16;;;;;;;;;6.00;2.75;;;;;-145.10;100.00;63789.38;5035451;28;57886;-84
2023/08/07 04:33:41;;;;;;;;;1.50;1.50;;;;;-145.10;100.00;63789.38;5055415;28;45574;-84
2023/08/07 04:36:07;;;;;;;;;3.75;1.50;;;;;-145.10;100.00;63789.38;5040927;28;47424;-83
2023/08/07 04:38:32;;;;;;;;;1.25;1.25;;;;;-145.10;100.00;63789.38;5038167;28;45359;-84
2023/08/07 04:40:58;;;;;;;;;1.75;1.75;;;;;-145.10;100.00;63789.38;5055172;28;52973;-84
2023/08/07 04:43:23;;;;;;;;;8.25;3.00;;;;;-145.10;100.00;63789.38;5035793;28;69309;-84
2023/08/07 04:45:48;;;;;;;;;3.25;2.50;;;;;-145.10;100.00;63789.38;5054948;28;54948;-86
2023/08/07 04:48:14;;;;;;;;;3.25;2.00;;;;;-145.10;100.00;63789.38;5045702;28;45346;-87
2023/08/07 04:50:40;;;;;;;;;2.25;2.25;;;;;-145.10;100.00;63789.38;5031180;28;45462;-84
2023/08/07 04:53:05;;;;;;;;;5.75;1.50;;;;;-145.10;100.00;63789.38;5031321;28;45259;-85
2023/08/07 04:55:31;;;;;;;;;5.00;3.25;;;;;-145.10;100.00;63789.38;5038858;28;52509;-85
2023/08/07 04:57:57;;;;;;;;;6.75;3.00;;;;;-145.10;100.00;63789.38;5039731;28;45269;-86
2023/08/07 05:00:23;;;;;;;;;4.75;2.00;;;;;-145.10;100.00;63789.38;5042664;28;45378;-85
2023/08/07 05:02:48;;;;;;;;;4.00;4.00;;;;;-145.10;100.00;63789.38;5043711;28;45546;-85
2023/08/07 05:05:20;;;;;;;;;4.25;3.50;;;;;-145.10;100.00;63789.38;5044460;28;46478;-85
2023/08/07 05:07:46;;;;;;;;;5.25;3.00;;;;;-145.10;100.00;63789.38;5044140;28;45955;-85
2023/08/07 05:10:11;;;;;;;;;5.50;3.50;;;;;-145.10;100.00;63789.38;5020363;28;45342;-85
2023/08/07 05:12:36;;;;;;;;;5.00;4.00;;;;;-145.10;100.00;63789.38;5028509;28;58674;-86
2023/08/07 05:15:02;;;;;;;;;6.00;4.00;;;;;-145.10;100.00;63789.38;5021628;28;61396;-86
2023/08/07 05:17:27;;;;;;;;;6.00;5.00;;;;;-145.10;100.00;63789.38;5036030;28;45442;-85
2023/08/07 05:19:52;;;;;;;;;3.25;3.00;;;;;-145.10;100.00;63789.38;5046806;28;45387;-86
2023/08/07 05:22:18;;;;;;;;;7.00;5.00;;;;;-145.10;100.00;63789.38;5012256;28;45469;-85
2023/08/07 05:24:44;;;;;;;;;5.50;3.25;;;;;-145.10;100.00;63789.38;5020292;28;47311;-84
2023/08/07 05:27:10;;;;;;;;;5.00;4.00;;;;;-145.10;100.00;63789.38;5018072;28;45946;-87
2023/08/07 05:29:43;;;;;;;;;5.75;3.25;;;;;-145.10;100.00;63789.38;5049182;28;45533;-86
2023/08/07 05:32:09;;;;;;;;;7.75;6.00;;;;;-145.10;100.00;63789.38;5032951;28;45292;-84
2023/08/07 05:34:34;;;;;;;;;7.25;5.00;;;;;-145.10;100.00;63789.38;5030582;28;45346;-87
2023/08/07 05:36:59;;;;;;;;;12.75;8.50;;;;;-145.10;100.00;63789.38;5034792;28;55938;-80
2023/08/07 05:39:25;;;;;;;;;7.50;5.75;;;;;-145.10;100.00;63789.38;5026686;28;58421;-77
2023/08/07 05:41:53;;;;;;;;;9.50;5.00;;;;;-145.10;100.00;63789.38;5022709;28;61170;-79
2023/08/07 05:44:18;;;;;;;;;7.50;6.00;;;;;-145.10;100.00;63789.38;5038934;28;46327;-85
2023/08/07 05:46:44;;;;;;;;;8.00;6.00;;;;;-145.10;100.00;63789.38;5038961;28;45371;-83
2023/08/07 05:49:09;;;;;;;;;8.25;6.25;;;;;-145.10;100.00;63789.38;5034589;28;63328;-91
2023/08/07 05:51:34;;;;;;;;;6.00;6.00;;;;;-145.10;100.00;63789.38;5030800;28;45234;-79
2023/08/07 05:54:00;;;;;;;;;10.00;7.00;;;;;-145.10;100.00;63789.38;5033491;28;71848;-80
2023/08/07 05:56:25;;;;;;;;;10.00;7.50;;;;;-145.10;100.00;63789.38;5032951;28;45364;-87
2023/08/07 05:58:50;;;;;;;;;7.50;6.25;;;;;-145.10;100.00;63789.38;5033900;28;68770;-80
2023/08/07 06:01:17;;;;;;;;;12.50;7.25;;;;;-145.10;100.00;63789.38;5050949;28;67016;-83
2023/08/07 06:03:42;;;;;;;;;9.00;6.25;;;;;-145.10;100.00;63789.38;5049575;28;46233;-88
2023/08/07 06:06:08;;;;;;;;;9.25;7.75;;;;;-145.10;100.00;63789.38;5022924;28;45348;-80
2023/08/07 06:08:34;;;;;;;;;13.00;10.75;;;;;-145.10;100.00;63789.38;5032624;28;62651;-80
2023/08/07 06:11:03;;;;;;;;;12.00;10.25;;;;;-145.10;100.00;63789.38;5026726;28;45431;-76
2023/08/07 06:13:28;;;;;;;;;15.75;10.00;;;;;-145.10;100.00;63789.38;5028584;28;45827;-79
2023/08/07 06:15:55;;;;;;;;;16.00;9.50;;;;;-145.10;100.00;63789.38;5024005;28;45455;-80
2023/08/07 06:18:20;;;;;;;;;15.50;8.50;;;;;-145.10;100.00;63789.38;5036239;28;45312;-76
2023/08/07 06:20:46;;;;;;;;;9.75;8.00;;;;;-145.10;100.00;63789.38;5037738;28;67872;-75
2023/08/07 06:23:12;;;;;;;;;11.00;8.00;;;;;-145.10;100.00;63789.38;5017262;28;46087;-76
2023/08/07 06:25:37;;;;;;;;;8.50;8.25;;;;;-145.10;100.00;63789.38;5024978;28;45345;-75
2023/08/07 06:28:03;;;;;;;;;8.50;7.50;;;;;-145.10;100.00;63789.38;5027670;28;45461;-75
2023/08/07 06:30:28;;;;;;;;;12.25;9.50;;;;;-145.10;100.00;63789.38;5043986;28;45548;-75
2023/08/07 06:32:53;;;;;;;;;12.75;9.25;;;;;-145.10;100.00;63789.38;5030572;28;62003;-74
2023/08/07 06:35:18;;;;;;;;;10.00;8.00;;;;;-145.10;100.00;63789.38;5032949;28;68149;-74
2023/08/07 06:37:44;;;;;;;;;8.75;8.75;;;;;-145.10;100.00;63789.38;5039852;28;63890;-74
2023/08/07 06:40:10;;;;;;;;;11.25;9.75;;;;;-145.10;100.00;63789.38;5028164;28;61705;-75
2023/08/07 06:42:35;;;;;;;;;9.00;8.75;;;;;-145.10;100.00;63789.38;5038698;28;46794;-75
2023/08/07 06:45:00;;;;;;;;;13.25;11.25;;;;;-145.10;100.00;63789.38;5025571;28;63646;-76
2023/08/07 06:47:26;;;;;;;;;10.25;9.50;;;;;-145.10;100.00;63789.38;5045221;28;57414;-75
2023/08/07 06:49:51;;;;;;;;;13.50;10.00;;;;;-145.10;100.00;63789.38;5038170;28;58998;-76
2023/08/07 06:52:16;;;;;;;;;9.75;8.75;;;;;-145.10;100.00;63789.38;5031840;28;47151;-75
2023/08/07 06:54:42;;;;;;;;;10.00;7.00;;;;;-145.10;100.00;63789.38;5025374;28;45368;-76
2023/08/07 06:57:07;;;;;;;;;10.25;8.25;;;;;-145.10;100.00;63789.38;5046862;28;45377;-75
2023/08/07 06:59:32;;;;;;;;;14.25;10.00;;;;;-145.10;100.00;63789.38;5026633;28;45493;-75
2023/08/07 07:01:58;;;;;;;;;10.25;8.50;;;;;-145.10;100.00;63789.38;5053335;28;45406;-75
2023/08/07 07:04:23;;;;;;;;;6.75;6.25;;;;;-145.10;100.00;63789.38;5024032;28;59453;-75
2023/08/07 07:06:48;;;;;;;;;11.25;7.75;;;;;-145.10;100.00;63789.38;5046399;28;45311;-75
2023/08/07 07:09:16;;;;;;;;;7.25;6.00;;;;;-145.10;100.00;63789.38;5024897;28;57097;-75
2023/08/07 07:11:42;;;;;;;;;10.25;8.25;;;;;-145.10;100.00;63789.38;5038484;28;47277;-75
2023/08/07 07:14:08;;;;;;;;;12.50;6.25;;;;;-145.10;100.00;63789.38;5025029;28;45227;-75
2023/08/07 07:16:33;;;;;;;;;11.50;9.25;;;;;-145.10;100.00;63789.38;5025195;28;56983;-76
2023/08/07 07:18:59;;;;;;;;;6.00;5.25;;;;;-145.10;100.00;63789.38;5049278;28;45589;-76
2023/08/07 07:21:25;;;;;;;;;11.25;9.25;;;;;-145.10;100.00;63789.38;5030593;28;46505;-76
2023/08/07 07:23:50;;;;;;;;;7.25;6.00;;;;;-145.10;100.00;63789.38;5050044;28;45283;-76
2023/08/07 07:26:15;;;;;;;;;9.25;7.25;;;;;-145.10;100.00;63789.38;5012406;28;45491;-76
2023/08/07 07:28:41;;;;;;;;;13.50;7.50;;;;;-145.10;100.00;63789.38;5024323;28;73126;-76
2023/08/07 07:31:08;;;;;;;;;9.75;9.00;;;;;-145.10;100.00;63789.38;5028556;28;63282;-76
2023/08/07 07:33:36;;;;;;;;;12.00;8.00;;;;;-145.10;100.00;63789.38;5022568;28;45424;-76
2023/08/07 07:36:01;;;;;;;;;10.50;9.25;;;;;-145.10;100.00;63789.38;5039547;28;45493;-75
2023/08/07 07:38:26;;;;;;;;;8.75;7.25;;;;;-145.10;100.00;63789.38;5022225;28;45739;-75
2023/08/07 07:40:56;;;;;;;;;9.50;7.00;;;;;-145.10;100.00;63789.38;5033931;28;45224;-75
2023/08/07 07:43:21;;;;;;;;;13.75;7.25;;;;;-145.10;100.00;63789.38;5028077;28;45285;-75
2023/08/07 07:45:47;;;;;;;;;11.25;6.50;;;;;-145.10;100.00;63789.38;5032603;28;46034;-75
2023/08/07 07:48:12;;;;;;;;;8.00;8.00;;;;;-145.10;100.00;63789.38;5034772;28;45335;-75
2023/08/07 07:50:38;;;;;;;;;12.25;7.50;;;;;-145.10;100.00;63789.38;5013474;28;73109;-77
2023/08/07 07:53:03;;;;;;;;;8.00;6.50;;;;;-145.10;100.00;63789.38;5025695;28;61055;-76
2023/08/07 07:55:28;;;;;;;;;8.25;7.25;;;;;-145.10;100.00;63789.38;5031424;28;52577;-77
2023/08/07 07:57:55;;;;;;;;;11.50;7.25;;;;;-145.10;100.00;63789.38;5034330;28;45461;-77
2023/08/07 08:00:22;;;;;;;;;8.00;6.00;;;;;-145.10;100.00;63789.38;5018043;28;47191;-76
2023/08/07 08:02:47;;;;;;;;;10.00;8.25;;;;;-145.10;100.00;63789.38;5039616;28;45912;-76
2023/08/07 08:05:13;;;;;;;;;9.00;7.00;;;;;-145.10;100.00;63789.38;5032441;28;55941;-76
2023/08/07 08:07:42;;;;;;;;;9.00;6.75;;;;;-145.10;100.00;63789.38;5030131;28;45506;-76
2023/08/07 08:10:08;;;;;;;;;9.75;7.00;;;;;-145.10;100.00;63789.38;5041377;28;45315;-76
2023/08/07 08:12:34;;;;;;;;;9.25;7.00;;;;;-145.10;100.00;63789.38;5035161;28;45539;-77
2023/08/07 08:14:59;;;;;;;;;8.00;8.00;;;;;-145.10;100.00;63789.38;5038261;28;45329;-76
2023/08/07 08:17:25;;;;;;;;;9.00;6.00;;;;;-145.10;100.00;63789.38;5030940;28;46183;-75
2023/08/07 08:19:51;;;;;;;;;7.00;5.00;;;;;-145.10;100.00;63789.38;5029278;28;73387;-74
2023/08/07 08:22:16;;;;;;;;;9.50;6.00;;;;;-145.10;100.00;63789.38;5019983;28;45288;-75
2023/08/07 08:24:41;;;;;;;;;8.75;7.00;;;;;-145.10;100.00;63789.38;5038307;28;45333;-76
2023/08/07 08:27:07;;;;;;;;;6.50;6.00;;;;;-145.10;100.00;63789.38;5035382;28;63489;-76
2023/08/07 08:29:32;;;;;;;;;4.75;3.75;;;;;-145.10;100.00;63789.38;5027700;28;57436;-76
2023/08/07 08:31:57;;;;;;;;;7.25;6.25;;;;;-145.10;100.00;63789.38;5034210;28;46238;-76
2023/08/07 08:34:23;;;;;;;;;8.50;6.00;;;;;-145.10;100.00;63789.38;5038619;28;45405;-76
2023/08/07 08:36:48;;;;;;;;;5.75;4.50;;;;;-145.10;100.00;63789.38;5039809;28;70986;-76
2023/08/07 08:39:13;;;;;;;;;6.00;4.50;;;;;-145.10;100.00;63789.38;5057225;28;60146;-76
2023/08/07 08:41:41;;;;;;;;;4.75;4.00;;;;;-145.10;100.00;63789.38;5035393;28;45297;-76
2023/08/07 08:44:07;;;;;;;;;4.50;3.75;;;;;-145.10;100.00;63789.38;5034092;28;45502;-76
2023/08/07 08:46:33;;;;;;;;;5.50;5.00;;;;;-145.10;100.00;63789.38;5034373;28;45596;-76
2023/08/07 08:48:59;;;;;;;;;9.00;3.50;;;;;-145.10;100.00;63789.38;5034854;28;46285;-76
2023/08/07 08:51:25;;;;;;;;;5.75;4.50;;;;;-145.10;100.00;63789.38;5039538;28;45406;-76
2023/08/07 08:53:56;;;;;;;;;5.50;5.50;;;;;-145.10;100.00;63789.38;5021218;28;45358;-76
2023/08/07 08:56:22;;;;;;;;;5.75;4.00;;;;;-145.10;100.00;63789.38;5019715;28;45507;-76
2023/08/07 08:58:48;;;;;;;;;6.00;5.00;;;;;-145.10;100.00;63789.38;5034732;28;45471;-76
2023/08/07 09:01:15;;;;;;;;;5.00;4.00;;;;;-145.10;100.00;63789.38;5035533;28;45714;-76
2023/08/07 09:03:40;;;;;;;;;6.75;4.00;;;;;-145.10;100.00;63789.38;5021683;28;45506;-76
2023/08/07 09:06:06;;;;;;;;;5.50;4.00;;;;;-145.10;100.00;63789.38;5047304;28;45473;-76
2023/08/07 09:08:32;;;;;;;;;4.25;3.25;;;;;-145.10;100.00;63789.38;5023738;28;47244;-76
2023/08/07 09:10:58;;;;;;;;;6.75;4.00;;;;;-145.10;100.00;63789.38;5034860;28;45495;-76
2023/08/07 09:13:24;;;;;;;;;5.75;3.50;;;;;-145.10;100.00;63789.38;5035715;28;45312;-76
2023/08/07 09:15:53;;;;;;;;;6.75;5.25;;;;;-145.10;100.00;63789.38;5037258;28;45284;-76
2023/08/07 09:18:21;;;;;;;;;5.25;4.00;;;;;-145.10;100.00;63789.38;5034388;28;49030;-76
2023/08/07 09:20:48;;;;;;;;;8.00;6.75;;;;;-145.10;100.00;63789.38;5031391;28;45419;-76
2023/08/07 09:23:15;;;;;;;;;6.00;4.50;;;;;-145.10;100.00;63789.38;5037638;28;45481;-76
2023/08/07 09:25:41;;;;;;;;;4.00;3.50;;;;;-145.10;100.00;63789.38;5037806;28;45366;-76
2023/08/07 09:28:07;;;;;;;;;4.00;4.00;;;;;-145.10;100.00;63789.38;5019328;28;47147;-76
2023/08/07 09:30:34;;;;;;;;;3.25;2.25;;;;;-145.10;100.00;63789.38;5030316;28;45531;-76
2023/08/07 09:33:00;;;;;;;;;8.00;4.00;;;;;-145.10;100.00;63789.38;5035504;28;45245;-76
2023/08/07 09:35:26;;;;;;;;;5.75;3.25;;;;;-145.10;100.00;63789.38;5034712;28;45289;-75
2023/08/07 09:37:51;;;;;;;;;7.50;4.75;;;;;-145.10;100.00;63789.38;5028381;28;45834;-76
2023/08/07 09:40:18;;;;;;;;;5.00;4.00;;;;;-145.10;100.00;63789.38;5037568;28;45321;-76
2023/08/07 09:42:43;;;;;;;;;4.50;3.00;;;;;-145.10;100.00;63789.38;5036945;28;45323;-76
2023/08/07 09:45:22;;;;;;;;;3.75;3.75;;;;;-145.10;100.00;63789.38;5030430;28;49766;-76
2023/08/07 09:48:15;;;;;;;;;6.00;3.00;;;;;-145.10;100.00;63789.38;5029501;28;45513;-76
2023/08/07 09:50:40;;;;;;;;;2.00;2.00;;;;;-145.10;100.00;63789.38;5030504;28;45682;-77
2023/08/07 09:53:05;;;;;;;;;3.00;3.00;;;;;-145.10;100.00;63789.38;5020823;28;66982;-77
2023/08/07 09:55:31;;;;;;;;;4.00;3.00;;;;;-145.10;100.00;63789.38;5032019;28;45656;-77
2023/08/07 09:57:57;;;;;;;;;4.00;2.00;;;;;-145.10;100.00;63789.38;5031622;28;45489;-77
2023/08/07 10:00:22;;;;;;;;;3.50;3.50;;;;;-145.10;100.00;63789.38;5038169;28;45382;-76
2023/08/07 10:02:49;;;;;;;;;4.50;3.75;;;;;-145.10;100.00;63789.38;5031156;28;45478;-77
2023/08/07 10:05:14;;;;;;;;;3.00;2.00;;;;;-145.10;100.00;63789.38;5035460;28;45369;-76
2023/08/07 10:07:40;;;;;;;;;2.75;2.75;;;;;-145.10;100.00;63789.38;5030950;28;45302;-75
2023/08/07 10:10:07;;;;;;;;;5.75;3.75;;;;;-145.10;100.00;63789.38;5039508;28;45738;-75
2023/08/07 10:12:32;;;;;;;;;2.50;2.50;;;;;-145.10;100.00;63789.38;5036318;28;46808;-75
2023/08/07 10:14:59;;;;;;;;;2.75;2.75;;;;;-145.10;100.00;63789.38;5034738;28;55732;-75
2023/08/07 10:17:25;;;;;;;;;4.75;4.50;;;;;-145.10;100.00;63789.38;5026258;28;45391;-75
2023/08/07 10:19:51;;;;;;;;;3.50;3.00;;;;;-145.10;100.00;63789.38;5042962;28;45272;-75
2023/08/07 10:22:18;;;;;;;;;3.00;3.00;;;;;-145.10;100.00;63789.38;5022645;28;45687;-75
2023/08/07 10:24:47;;;;;;;;;3.50;3.00;;;;;-145.10;100.00;63789.38;5021427;28;45543;-75
2023/08/07 10:27:15;;;;;;;;;3.00;3.00;;;;;-145.10;100.00;63789.38;5024212;28;48129;-76
2023/08/07 10:29:42;;;;;;;;;4.25;4.00;;;;;-145.10;100.00;63789.38;5035747;28;45712;-75
2023/08/07 10:32:07;;;;;;;;;4.25;4.00;;;;;-145.10;100.00;63789.38;5057049;28;45462;-76
2023/08/07 10:34:34;;;;;;;;;4.00;2.25;;;;;-145.10;100.00;63789.38;5019265;28;72228;-76
2023/08/07 10:36:59;;;;;;;;;3.75;2.75;;;;;-145.10;100.00;63789.38;5033241;28;48430;-76
2023/08/07 10:39:25;;;;;;;;;2.50;2.00;;;;;-145.10;100.00;63789.38;5045367;28;71608;-76
2023/08/07 10:41:56;;;;;;;;;2.00;2.00;;;;;-145.10;100.00;63789.38;5039204;28;45250;-76
2023/08/07 10:44:23;;;;;;;;;5.75;3.50;;;;;-145.10;100.00;63789.38;5040515;28;45400;-76
2023/08/07 10:46:53;;;;;;;;;3.25;2.50;;;;;-145.10;100.00;63789.38;5038097;28;45514;-76
2023/08/07 10:49:45;;;;;;;;;3.00;3.00;;;;;-145.10;100.00;63789.38;5034062;28;45562;-76
2023/08/07 10:52:14;;;;;;;;;3.00;3.00;;;;;-145.10;100.00;63789.38;5012087;28;69445;-75
2023/08/07 10:54:49;;;;;;;;;3.00;3.00;;;;;-145.10;100.00;63789.38;5036388;28;45336;-76
2023/08/07 10:57:18;;;;;;;;;4.25;3.00;;;;;-145.10;100.00;63789.38;5037394;28;45461;-76
2023/08/07 10:59:48;;;;;;;;;4.00;3.00;;;;;-145.10;100.00;63789.38;5022019;28;45230;-76
2023/08/07 11:02:23;;;;;;;;;3.50;3.50;;;;;-145.10;100.00;63789.38;5033775;28;45538;-76